Time;durP1;ratioP1;P1;durP2;ratioP2;P2;SDS_P1;SDS_P2;PMS_P1;PMS_P2;Temp;Humidity;BMP_temperature;BMP_pressure;BME280_temperature;BME280_humidity;BME280_pressure;Samples;Min_cycle;Max_cycle;Signal;HPM_P1;HPM_P2
2020/12/28 00:02:00;;;;;;;21.70;20.60;;;7.30;75.60;;;;;;5033680;28;20566;-76
2020/12/28 00:04:27;;;;;;;21.38;20.30;;;7.30;75.70;;;;;;5033786;28;20661;-77
2020/12/28 00:06:53;;;;;;;21.80;20.70;;;7.30;75.50;;;;;;5033393;28;20228;-76
2020/12/28 00:09:19;;;;;;;21.15;20.05;;;7.30;75.60;;;;;;5033429;28;20220;-76
2020/12/28 00:11:46;;;;;;;22.15;21.05;;;7.20;75.60;;;;;;5050616;28;20192;-76
2020/12/28 00:14:12;;;;;;;21.70;20.70;;;7.20;75.90;;;;;;5053455;28;20249;-76
2020/12/28 00:16:39;;;;;;;21.73;20.63;;;7.20;75.80;;;;;;5052970;28;20235;-77
2020/12/28 00:19:07;;;;;;;21.90;20.80;;;7.20;76.00;;;;;;5053334;28;20580;-76
2020/12/28 00:21:34;;;;;;;21.20;20.20;;;7.20;75.90;;;;;;5037519;28;20193;-76
2020/12/28 00:24:00;;;;;;;21.92;20.83;;;7.10;76.20;;;;;;5052757;28;20251;-77
2020/12/28 00:26:26;;;;;;;22.20;21.10;;;7.10;76.40;;;;;;5052915;28;20229;-77
2020/12/28 00:28:53;;;;;;;20.90;19.88;;;7.10;76.50;;;;;;5053124;28;20227;-77
2020/12/28 00:31:19;;;;;;;20.95;19.95;;;7.00;76.70;;;;;;5039577;28;20543;-76
2020/12/28 00:33:46;;;;;;;21.08;19.98;;;7.10;76.60;;;;;;5050230;28;20201;-76
2020/12/28 00:36:16;;;;;;;21.90;20.70;;;7.10;76.40;;;;;;5052825;28;20655;-77
2020/12/28 00:38:42;;;;;;;21.52;20.42;;;7.00;76.60;;;;;;5052928;28;20193;-77
2020/12/28 00:41:11;;;;;;;21.40;20.30;;;6.90;76.80;;;;;;5052703;28;20654;-77
2020/12/28 00:43:40;;;;;;;21.13;20.02;;;6.90;76.90;;;;;;5036210;28;20687;-77
2020/12/28 00:46:07;;;;;;;21.35;20.25;;;7.00;76.80;;;;;;5032667;28;20226;-77
2020/12/28 00:48:33;;;;;;;21.50;20.48;;;6.90;76.90;;;;;;5032707;28;20663;-76
2020/12/28 00:51:00;;;;;;;21.30;20.27;;;6.90;77.00;;;;;;5033034;28;20226;-76
2020/12/28 00:53:28;;;;;;;20.60;19.60;;;6.90;77.10;;;;;;5032583;28;20214;-76
2020/12/28 00:55:54;;;;;;;21.10;20.10;;;6.90;77.40;;;;;;5032352;28;20244;-77
2020/12/28 00:58:20;;;;;;;20.50;19.50;;;6.90;77.30;;;;;;5032807;28;20582;-76
2020/12/28 01:00:47;;;;;;;20.38;19.40;;;6.90;77.30;;;;;;5032307;28;20212;-76
2020/12/28 01:03:13;;;;;;;20.67;19.52;;;6.90;77.60;;;;;;5044815;28;20561;-76
2020/12/28 01:05:40;;;;;;;21.05;20.05;;;6.90;77.60;;;;;;5052318;28;20274;-76
2020/12/28 01:08:07;;;;;;;20.50;19.60;;;7.00;77.70;;;;;;5052477;28;20223;-76
2020/12/28 01:10:33;;;;;;;21.35;20.35;;;7.00;77.70;;;;;;5052303;28;20208;-76
2020/12/28 01:12:59;;;;;;;20.80;19.80;;;6.90;78.00;;;;;;5052563;28;20193;-76
2020/12/28 01:15:26;;;;;;;20.83;19.73;;;7.00;78.20;;;;;;5044891;28;20189;-76
2020/12/28 01:17:54;;;;;;;20.65;19.55;;;7.00;78.30;;;;;;5032525;28;20200;-76
2020/12/28 01:20:20;;;;;;;20.50;19.50;;;7.00;78.30;;;;;;5032492;28;20197;-76
2020/12/28 01:22:47;;;;;;;21.83;20.70;;;6.90;78.50;;;;;;5032360;28;20287;-76
2020/12/28 01:25:14;;;;;;;19.38;18.48;;;6.90;78.70;;;;;;5033338;28;20192;-76
2020/12/28 01:27:41;;;;;;;19.70;18.80;;;6.90;78.90;;;;;;5032362;28;20221;-76
2020/12/28 01:30:07;;;;;;;19.63;18.73;;;6.90;79.00;;;;;;5032360;28;20571;-76
2020/12/28 01:32:34;;;;;;;20.15;19.15;;;6.80;79.10;;;;;;5032363;28;20193;-76
2020/12/28 01:35:00;;;;;;;19.70;18.80;;;6.90;79.10;;;;;;5033589;28;20204;-77
2020/12/28 01:37:27;;;;;;;19.95;18.92;;;6.90;79.00;;;;;;5052002;28;20690;-76
2020/12/28 01:39:53;;;;;;;20.70;19.80;;;6.80;78.90;;;;;;5052194;28;20661;-76
2020/12/28 01:42:20;;;;;;;19.98;18.98;;;6.70;79.10;;;;;;5052037;28;20196;-77
2020/12/28 01:44:47;;;;;;;20.35;19.35;;;6.70;79.40;;;;;;5039397;28;20256;-77
2020/12/28 01:47:14;;;;;;;19.60;18.70;;;6.70;79.70;;;;;;5031748;28;20220;-76
2020/12/28 01:49:41;;;;;;;19.70;18.80;;;6.70;79.70;;;;;;5032344;28;20194;-76
2020/12/28 01:52:07;;;;;;;20.08;19.17;;;6.70;79.50;;;;;;5032196;28;20197;-77
2020/12/28 01:54:34;;;;;;;20.10;19.10;;;6.70;79.80;;;;;;5042437;28;20193;-76
2020/12/28 01:57:00;;;;;;;19.80;18.90;;;6.80;80.00;;;;;;5051793;28;20224;-77
2020/12/28 01:59:28;;;;;;;19.70;18.80;;;6.80;79.80;;;;;;5044849;28;20194;-77
2020/12/28 02:01:55;;;;;;;19.50;18.60;;;6.70;80.20;;;;;;5032124;28;20228;-76
2020/12/28 02:04:22;;;;;;;19.08;18.17;;;6.90;80.20;;;;;;5050204;28;20205;-77
2020/12/28 02:06:49;;;;;;;19.40;18.40;;;6.90;80.20;;;;;;5051611;28;20221;-77
2020/12/28 02:09:16;;;;;;;18.38;17.58;;;7.00;80.20;;;;;;5051836;28;20232;-76
2020/12/28 02:11:42;;;;;;;18.40;17.50;;;7.10;80.20;;;;;;5052013;28;20246;-76
2020/12/28 02:14:09;;;;;;;18.77;17.88;;;7.00;80.50;;;;;;5038870;28;20204;-77
2020/12/28 02:16:36;;;;;;;18.90;18.00;;;7.00;80.80;;;;;;5055210;28;20257;-76
2020/12/28 02:19:03;;;;;;;18.95;18.05;;;7.10;81.50;;;;;;5055176;28;20199;-76
2020/12/28 02:21:30;;;;;;;19.25;18.10;;;7.00;81.90;;;;;;5053839;28;20201;-76
2020/12/28 02:23:57;;;;;;;18.88;18.08;;;7.00;82.10;;;;;;5055478;28;20196;-76
2020/12/28 02:26:23;;;;;;;18.27;17.48;;;7.00;82.40;;;;;;5055407;28;20220;-76
2020/12/28 02:28:50;;;;;;;18.52;17.63;;;7.00;83.00;;;;;;5053673;28;20224;-76
2020/12/28 02:31:16;;;;;;;18.20;17.30;;;7.00;82.90;;;;;;5052948;28;20193;-76
2020/12/28 02:33:42;;;;;;;18.50;17.70;;;7.00;83.10;;;;;;5055332;28;20192;-76
2020/12/28 02:36:09;;;;;;;18.17;17.38;;;7.00;83.40;;;;;;5055200;28;20224;-76
2020/12/28 02:38:35;;;;;;;17.85;17.00;;;7.00;83.50;;;;;;5046812;28;20247;-76
2020/12/28 02:41:03;;;;;;;18.23;17.42;;;7.00;83.80;;;;;;5035496;28;20196;-76
2020/12/28 02:43:30;;;;;;;17.60;16.80;;;7.00;83.60;;;;;;5035030;28;20613;-76
2020/12/28 02:45:57;;;;;;;17.73;16.92;;;7.00;83.70;;;;;;5035088;28;20251;-76
2020/12/28 02:48:23;;;;;;;17.92;17.13;;;6.90;84.20;;;;;;5040690;28;20223;-76
2020/12/28 02:50:50;;;;;;;17.30;16.50;;;7.00;84.50;;;;;;5055130;28;20207;-77
2020/12/28 02:53:16;;;;;;;17.30;16.48;;;6.90;84.30;;;;;;5055183;28;20257;-76
2020/12/28 02:55:43;;;;;;;17.63;16.83;;;6.80;84.80;;;;;;5054847;28;20730;-76
2020/12/28 02:58:10;;;;;;;17.55;16.75;;;6.80;84.80;;;;;;5050644;28;20196;-76
2020/12/28 03:00:36;;;;;;;17.85;17.05;;;6.80;85.00;;;;;;5040128;28;20203;-76
2020/12/28 03:03:03;;;;;;;17.55;16.75;;;6.80;85.20;;;;;;5054730;28;20254;-76
2020/12/28 03:05:29;;;;;;;17.60;16.70;;;6.80;85.30;;;;;;5047166;28;20554;-76
2020/12/28 03:07:55;;;;;;;17.70;16.90;;;6.70;85.60;;;;;;5050435;28;20220;-76
2020/12/28 03:10:22;;;;;;;18.80;17.65;;;6.70;85.80;;;;;;5043429;28;20548;-77
2020/12/28 03:12:48;;;;;;;17.48;16.67;;;6.70;85.90;;;;;;5034987;28;20193;-77
2020/12/28 03:15:15;;;;;;;17.45;16.65;;;6.70;85.90;;;;;;5034789;28;20197;-76
2020/12/28 03:17:42;;;;;;;16.95;16.15;;;6.60;86.30;;;;;;5034587;28;20747;-77
2020/12/28 03:20:08;;;;;;;17.52;16.73;;;6.60;86.40;;;;;;5035099;28;20618;-76
2020/12/28 03:22:34;;;;;;;18.10;17.30;;;6.50;86.50;;;;;;5034256;28;20202;-76
2020/12/28 03:25:01;;;;;;;17.50;16.70;;;6.50;86.80;;;;;;5034251;28;20253;-77
2020/12/28 03:27:27;;;;;;;17.30;16.50;;;6.50;86.90;;;;;;5034001;28;20232;-77
2020/12/28 03:29:53;;;;;;;17.27;16.50;;;6.50;87.10;;;;;;5040626;28;20257;-77
2020/12/28 03:32:21;;;;;;;17.40;16.60;;;6.50;86.90;;;;;;5053951;28;20680;-76
2020/12/28 03:34:47;;;;;;;16.73;16.00;;;6.50;87.00;;;;;;5054424;28;20223;-77
2020/12/28 03:37:13;;;;;;;16.73;16.02;;;6.40;87.20;;;;;;5053938;28;20618;-76
2020/12/28 03:39:40;;;;;;;17.35;16.55;;;6.30;87.40;;;;;;5049874;28;20550;-77
2020/12/28 03:42:06;;;;;;;16.90;16.20;;;6.30;87.40;;;;;;5033996;28;20233;-77
2020/12/28 03:44:32;;;;;;;17.40;16.60;;;6.30;87.50;;;;;;5034088;28;20204;-76
2020/12/28 03:46:59;;;;;;;16.73;16.02;;;6.30;87.50;;;;;;5033609;28;20698;-76
2020/12/28 03:49:26;;;;;;;16.20;15.50;;;6.30;87.80;;;;;;5049253;28;20249;-76
2020/12/28 03:51:52;;;;;;;17.33;16.58;;;6.30;87.60;;;;;;5053912;28;20198;-76
2020/12/28 03:54:19;;;;;;;17.80;17.00;;;6.30;87.70;;;;;;5053933;28;20195;-76
2020/12/28 03:56:45;;;;;;;16.95;16.20;;;6.30;87.50;;;;;;5053489;28;20222;-76
2020/12/28 03:59:11;;;;;;;16.27;15.57;;;6.20;87.60;;;;;;5039776;28;20566;-76
2020/12/28 04:01:38;;;;;;;17.90;17.10;;;6.10;88.60;;;;;;5033723;28;20248;-76
2020/12/28 04:04:04;;;;;;;18.33;17.33;;;6.00;88.80;;;;;;5033716;28;20207;-76
2020/12/28 04:06:31;;;;;;;18.65;17.85;;;6.00;88.80;;;;;;5033505;28;20220;-77
2020/12/28 04:08:58;;;;;;;18.60;17.80;;;6.00;88.60;;;;;;5033191;28;20215;-76
2020/12/28 04:11:24;;;;;;;17.00;16.20;;;5.90;88.90;;;;;;5033528;28;20216;-76
2020/12/28 04:13:50;;;;;;;18.08;17.27;;;5.90;89.20;;;;;;5033464;28;20554;-76
2020/12/28 04:16:18;;;;;;;15.98;15.27;;;5.90;89.30;;;;;;5033247;28;20286;-76
2020/12/28 04:18:44;;;;;;;16.85;16.05;;;5.90;89.20;;;;;;5042655;28;20217;-76
2020/12/28 04:21:11;;;;;;;17.60;16.70;;;5.80;89.30;;;;;;5053014;28;20223;-77
2020/12/28 04:23:38;;;;;;;18.02;17.17;;;5.70;89.60;;;;;;5053320;28;20668;-76
2020/12/28 04:26:04;;;;;;;17.48;16.67;;;5.70;89.60;;;;;;5053066;28;20223;-77
2020/12/28 04:28:31;;;;;;;16.85;16.05;;;5.80;89.70;;;;;;5051269;28;20777;-76
2020/12/28 04:30:57;;;;;;;17.63;16.73;;;5.80;90.00;;;;;;5034568;28;20203;-76
2020/12/28 04:33:24;;;;;;;16.98;16.17;;;5.70;90.20;;;;;;5033160;28;20567;-76
2020/12/28 04:35:50;;;;;;;17.35;16.55;;;5.70;90.20;;;;;;5041469;28;20275;-76
2020/12/28 04:38:17;;;;;;;16.90;16.05;;;5.70;90.20;;;;;;5024667;28;20286;-76
2020/12/28 04:40:44;;;;;;;16.52;15.73;;;5.70;90.60;;;;;;5032928;28;20198;-76
2020/12/28 04:43:11;;;;;;;16.20;15.40;;;5.70;90.50;;;;;;5033191;28;20559;-76
2020/12/28 04:45:38;;;;;;;16.70;15.90;;;5.70;90.40;;;;;;5033899;28;20222;-77
2020/12/28 04:48:07;;;;;;;17.00;16.10;;;5.70;90.10;;;;;;5032852;28;20239;-76
2020/12/28 04:50:34;;;;;;;17.77;16.98;;;5.60;90.10;;;;;;5032932;28;20186;-77
2020/12/28 04:53:02;;;;;;;16.40;15.63;;;5.60;90.10;;;;;;5033028;28;20262;-76
2020/12/28 04:55:28;;;;;;;16.55;15.85;;;5.60;90.20;;;;;;5043358;28;20190;-77
2020/12/28 04:57:55;;;;;;;16.35;15.55;;;5.60;89.80;;;;;;5052757;28;20200;-76
2020/12/28 05:00:22;;;;;;;16.58;15.88;;;5.60;89.50;;;;;;5052696;28;20202;-77
2020/12/28 05:02:48;;;;;;;16.50;15.70;;;5.60;89.60;;;;;;5052629;28;20201;-76
2020/12/28 05:05:15;;;;;;;16.70;15.88;;;5.50;89.70;;;;;;5043363;28;20189;-77
2020/12/28 05:07:48;;;;;;;16.40;15.60;;;5.60;89.90;;;;;;5032472;28;20203;-76
2020/12/28 05:10:25;;;;;;;15.85;15.05;;;5.60;89.80;;;;;;5032474;28;20260;-77
2020/12/28 05:12:51;;;;;;;16.67;15.65;;;5.50;89.80;;;;;;5032562;28;20193;-76
2020/12/28 05:15:19;;;;;;;16.40;15.60;;;5.50;89.70;;;;;;5041428;28;20277;-77
2020/12/28 05:17:53;;;;;;;17.50;16.70;;;5.50;89.70;;;;;;5052316;28;20196;-77
2020/12/28 05:20:23;;;;;;;16.35;15.45;;;5.50;89.70;;;;;;5052574;28;20308;-77
2020/12/28 05:22:51;;;;;;;16.17;15.48;;;5.50;89.70;;;;;;5052308;28;20233;-77
2020/12/28 05:25:17;;;;;;;15.15;14.52;;;5.50;89.70;;;;;;5043583;28;20199;-76
2020/12/28 05:27:46;;;;;;;17.35;16.55;;;5.60;89.60;;;;;;5032175;28;20190;-77
2020/12/28 05:30:13;;;;;;;16.45;15.65;;;5.60;89.50;;;;;;5043327;28;20223;-76
2020/12/28 05:32:44;;;;;;;17.35;16.45;;;5.70;89.00;;;;;;5052348;28;20202;-76
2020/12/28 05:35:13;;;;;;;17.75;16.85;;;5.70;89.10;;;;;;5044720;28;20210;-77
2020/12/28 05:37:40;;;;;;;16.50;15.80;;;5.80;88.60;;;;;;5032211;28;20190;-76
2020/12/28 05:40:09;;;;;;;16.08;15.38;;;5.80;88.70;;;;;;5032283;28;20193;-76
2020/12/28 05:42:37;;;;;;;17.75;16.85;;;5.80;88.60;;;;;;5031931;28;20193;-76
2020/12/28 05:45:07;;;;;;;17.90;17.00;;;5.80;88.30;;;;;;5038320;28;20215;-76
2020/12/28 05:47:41;;;;;;;18.30;17.50;;;5.80;88.50;;;;;;5054186;28;20223;-76
2020/12/28 05:50:09;;;;;;;17.00;16.20;;;5.80;88.50;;;;;;5056181;28;20669;-76
2020/12/28 05:52:38;;;;;;;17.50;16.70;;;5.90;88.20;;;;;;5056262;28;20202;-76
2020/12/28 05:55:05;;;;;;;17.00;16.20;;;5.80;88.30;;;;;;5049185;28;20193;-76
2020/12/28 05:57:32;;;;;;;16.15;15.45;;;5.80;88.50;;;;;;5035958;28;20224;-76
2020/12/28 05:59:59;;;;;;;17.20;16.50;;;5.90;88.50;;;;;;5036072;28;20199;-76
2020/12/28 06:02:28;;;;;;;17.70;16.90;;;5.90;88.30;;;;;;5036018;28;20200;-76
2020/12/28 06:04:55;;;;;;;17.02;16.23;;;5.90;88.20;;;;;;5041102;28;20188;-77
2020/12/28 06:07:22;;;;;;;17.42;16.52;;;5.90;88.40;;;;;;5055793;28;20233;-76
2020/12/28 06:09:58;;;;;;;17.70;16.90;;;6.00;88.20;;;;;;5055621;28;20212;-76
2020/12/28 06:12:25;;;;;;;17.35;16.55;;;5.90;88.30;;;;;;5055417;28;20205;-76
2020/12/28 06:14:51;;;;;;;17.50;16.73;;;5.90;88.40;;;;;;5050823;28;20185;-76
2020/12/28 06:17:17;;;;;;;17.60;16.70;;;5.90;88.60;;;;;;5035729;28;20776;-76
2020/12/28 06:19:44;;;;;;;16.17;15.48;;;5.90;88.40;;;;;;5051024;28;20187;-76
2020/12/28 06:22:21;;;;;;;16.75;16.05;;;6.00;88.50;;;;;;5055607;28;20203;-76
2020/12/28 06:24:58;;;;;;;16.55;15.75;;;5.90;88.50;;;;;;5051552;28;20185;-76
2020/12/28 06:27:30;;;;;;;15.60;14.90;;;5.90;88.50;;;;;;5035372;28;20220;-76
2020/12/28 06:30:14;;;;;;;16.40;15.60;;;5.90;88.70;;;;;;5036219;28;20271;-76
2020/12/28 06:32:42;;;;;;;15.98;15.27;;;5.90;88.70;;;;;;5030369;28;20221;-76
2020/12/28 06:35:10;;;;;;;16.15;15.45;;;6.00;88.60;;;;;;5035427;28;20195;-76
2020/12/28 06:37:42;;;;;;;16.35;15.32;;;6.00;88.60;;;;;;5036412;28;20310;-76
2020/12/28 06:40:10;;;;;;;16.52;15.68;;;6.00;88.80;;;;;;5035397;28;20736;-76
2020/12/28 06:42:36;;;;;;;16.52;15.75;;;5.90;88.90;;;;;;5035165;28;20205;-76
2020/12/28 06:45:14;;;;;;;17.45;16.67;;;5.90;88.90;;;;;;5035372;28;20203;-76
2020/12/28 06:47:41;;;;;;;16.00;15.30;;;5.90;88.90;;;;;;5052077;28;20204;-76
2020/12/28 06:50:08;;;;;;;15.98;15.20;;;6.00;88.90;;;;;;5055181;28;20203;-76
2020/12/28 06:52:34;;;;;;;16.38;15.57;;;6.00;89.00;;;;;;5039599;28;20200;-76
2020/12/28 06:55:09;;;;;;;22.70;16.70;;;6.00;89.10;;;;;;5035146;28;20546;-76
2020/12/28 06:57:35;;;;;;;16.30;15.50;;;6.00;88.70;;;;;;5034671;28;20248;-76
2020/12/28 07:00:03;;;;;;;17.42;16.33;;;6.10;88.80;;;;;;5034226;28;20197;-76
2020/12/28 07:02:30;;;;;;;17.15;16.25;;;6.10;88.60;;;;;;5048060;28;20282;-76
2020/12/28 07:05:01;;;;;;;16.85;15.95;;;6.00;88.80;;;;;;5054794;28;20203;-76
2020/12/28 07:07:28;;;;;;;17.20;16.30;;;6.00;88.80;;;;;;5052868;28;20248;-76
2020/12/28 07:09:54;;;;;;;16.73;16.02;;;6.00;89.10;;;;;;5052530;28;20342;-76
2020/12/28 07:12:21;;;;;;;16.65;15.85;;;6.00;89.10;;;;;;5054677;28;20205;-76
2020/12/28 07:14:48;;;;;;;15.00;14.40;;;6.00;89.10;;;;;;5054655;28;20226;-76
2020/12/28 07:17:14;;;;;;;16.60;15.80;;;5.90;89.20;;;;;;5054317;28;20223;-76
2020/12/28 07:19:40;;;;;;;16.30;15.60;;;5.90;89.50;;;;;;5039348;28;20677;-76
2020/12/28 07:22:07;;;;;;;16.27;15.48;;;5.90;89.30;;;;;;5034628;28;20191;-76
2020/12/28 07:24:33;;;;;;;17.10;16.10;;;5.90;89.40;;;;;;5034566;28;20200;-76
2020/12/28 07:26:59;;;;;;;17.50;16.60;;;5.90;89.70;;;;;;5033990;28;20224;-76
2020/12/28 07:29:27;;;;;;;17.23;16.42;;;5.90;89.70;;;;;;5034386;28;20720;-76
2020/12/28 07:32:04;;;;;;;17.23;16.40;;;5.80;89.90;;;;;;5034470;28;20205;-76
2020/12/28 07:34:30;;;;;;;15.98;15.07;;;5.90;90.00;;;;;;5034468;28;20205;-76
2020/12/28 07:36:57;;;;;;;16.90;16.10;;;5.90;89.60;;;;;;5042402;28;20691;-76
2020/12/28 07:39:24;;;;;;;16.10;15.30;;;5.90;89.70;;;;;;5034216;28;20192;-76
2020/12/28 07:41:50;;;;;;;16.38;15.57;;;5.90;89.50;;;;;;5033971;28;20195;-76
2020/12/28 07:44:16;;;;;;;16.70;15.90;;;5.90;89.70;;;;;;5034313;28;20201;-76
2020/12/28 07:46:53;;;;;;;16.77;15.98;;;5.80;89.60;;;;;;5033803;28;20226;-76
2020/12/28 07:49:21;;;;;;;16.00;15.10;;;5.80;89.90;;;;;;5046119;28;20216;-77
2020/12/28 07:51:51;;;;;;;15.68;14.90;;;5.80;90.20;;;;;;5053979;28;20302;-76
2020/12/28 07:54:22;;;;;;;16.90;16.00;;;5.80;90.20;;;;;;5053345;28;20210;-76
2020/12/28 07:56:51;;;;;;;15.82;15.02;;;5.80;90.10;;;;;;5053332;28;20218;-76
2020/12/28 07:59:48;;;;;;;15.90;15.10;;;5.90;89.90;;;;;;5053804;28;20198;-76
2020/12/28 08:02:28;;;;;;;16.55;15.65;;;5.80;90.00;;;;;;5048319;28;20200;-76
2020/12/28 08:04:57;;;;;;;17.05;16.15;;;5.80;90.20;;;;;;5053402;28;20212;-76
2020/12/28 08:07:23;;;;;;;16.17;15.48;;;5.80;90.20;;;;;;5053404;28;20773;-76
2020/12/28 08:09:53;;;;;;;16.58;15.77;;;5.80;90.20;;;;;;5053235;28;20270;-76
2020/12/28 08:12:20;;;;;;;16.73;15.93;;;5.80;90.40;;;;;;5045903;28;20192;-76
2020/12/28 08:14:56;;;;;;;16.52;15.73;;;5.90;90.20;;;;;;5033607;28;20208;-76
2020/12/28 08:17:27;;;;;;;17.45;16.55;;;5.90;90.00;;;;;;5033326;28;20213;-76
2020/12/28 08:20:07;;;;;;;16.77;15.80;;;5.90;90.00;;;;;;5033349;28;20825;-76
2020/12/28 08:22:33;;;;;;;16.05;15.25;;;5.90;90.20;;;;;;5037170;28;20206;-76
2020/12/28 08:25:02;;;;;;;16.58;15.68;;;5.80;90.50;;;;;;5033295;28;20202;-76
2020/12/28 08:27:29;;;;;;;16.38;15.57;;;5.80;90.60;;;;;;5041433;28;20215;-76
2020/12/28 08:29:56;;;;;;;17.48;16.38;;;5.70;90.80;;;;;;5013106;28;20251;-77
2020/12/28 08:32:31;;;;;;;17.85;16.70;;;5.80;90.90;;;;;;5095081;27;20515;-77
2020/12/28 08:34:59;;;;;;;16.67;15.88;;;5.70;90.80;;;;;;5089515;28;20274;-77
2020/12/28 08:37:26;;;;;;;16.48;15.57;;;5.70;91.10;;;;;;5089784;28;20214;-77
2020/12/28 08:39:53;;;;;;;17.42;16.15;;;5.70;91.50;;;;;;5089441;28;20190;-77
2020/12/28 08:42:31;;;;;;;16.88;16.00;;;5.70;91.40;;;;;;5089307;28;20195;-77
2020/12/28 08:44:58;;;;;;;17.83;16.58;;;5.70;91.40;;;;;;5089425;28;20190;-77
2020/12/28 08:47:27;;;;;;;16.27;15.43;;;5.80;91.10;;;;;;5089026;28;20714;-77
2020/12/28 08:49:54;;;;;;;16.58;15.77;;;5.90;90.70;;;;;;5089449;28;20197;-77
2020/12/28 08:52:22;;;;;;;16.67;15.82;;;5.90;90.00;;;;;;5089793;28;20226;-77
2020/12/28 08:54:56;;;;;;;18.23;16.73;;;6.00;89.30;;;;;;5089723;28;20200;-77
2020/12/28 08:57:24;;;;;;;22.20;17.48;;;6.00;89.40;;;;;;5089320;28;20215;-77
2020/12/28 08:59:51;;;;;;;17.48;16.13;;;5.90;89.70;;;;;;5090146;28;20239;-77
2020/12/28 09:02:19;;;;;;;227.65;42.25;;;5.90;89.90;;;;;;5089548;28;20194;-77
2020/12/28 09:04:46;;;;;;;83.65;28.48;;;5.80;90.80;;;;;;5089233;28;20191;-76
2020/12/28 09:07:14;;;;;;;225.43;42.08;;;6.00;90.50;;;;;;5089150;28;20217;-77
2020/12/28 09:09:41;;;;;;;37.97;19.90;;;6.10;90.40;;;;;;5089355;28;20690;-77
2020/12/28 09:12:08;;;;;;;81.25;24.33;;;6.20;90.10;;;;;;5089016;28;20240;-77
2020/12/28 09:14:35;;;;;;;19.98;16.90;;;6.20;89.90;;;;;;5089221;28;20205;-77
2020/12/28 09:17:02;;;;;;;36.55;18.70;;;6.40;89.20;;;;;;5088835;28;20214;-77
2020/12/28 09:19:28;;;;;;;17.77;16.05;;;6.50;88.80;;;;;;5089225;28;20210;-77
2020/12/28 09:21:56;;;;;;;17.10;15.68;;;6.50;88.40;;;;;;5089241;28;20189;-77
2020/12/28 09:24:23;;;;;;;63.88;21.30;;;6.50;88.30;;;;;;5089164;28;20210;-77
2020/12/28 09:26:50;;;;;;;290.45;42.85;;;6.40;88.30;;;;;;5088686;28;20211;-77
2020/12/28 09:29:17;;;;;;;30.73;18.83;;;6.40;88.70;;;;;;5088950;28;20205;-76
2020/12/28 09:31:43;;;;;;;17.60;16.27;;;6.50;88.70;;;;;;5088792;28;20218;-77
2020/12/28 09:34:09;;;;;;;15.20;14.50;;;6.50;88.30;;;;;;5089207;28;20301;-77
2020/12/28 09:36:36;;;;;;;16.02;15.20;;;6.50;88.30;;;;;;5088581;28;20215;-77
2020/12/28 09:39:02;;;;;;;18.35;16.80;;;6.50;88.20;;;;;;5088462;28;20196;-77
2020/12/28 09:41:29;;;;;;;18.83;17.52;;;6.50;88.00;;;;;;5087777;28;20198;-77
2020/12/28 09:43:56;;;;;;;191.48;37.55;;;6.50;88.50;;;;;;5074528;28;20192;-77
2020/12/28 09:46:22;;;;;;;228.40;37.72;;;6.50;88.40;;;;;;5074932;28;20228;-77
2020/12/28 09:48:49;;;;;;;19.20;17.52;;;6.50;88.60;;;;;;5074729;28;20599;-77
2020/12/28 09:51:16;;;;;;;18.30;17.40;;;6.70;88.30;;;;;;5074810;28;20615;-77
2020/12/28 09:53:43;;;;;;;21.60;17.85;;;6.70;87.90;;;;;;5075134;28;20288;-77
2020/12/28 09:56:10;;;;;;;17.17;16.23;;;6.70;87.90;;;;;;5074980;28;20222;-77
2020/12/28 09:58:38;;;;;;;17.00;16.20;;;6.80;87.50;;;;;;5074866;28;20200;-77
2020/12/28 10:01:06;;;;;;;17.73;16.75;;;7.00;87.10;;;;;;5076013;28;20202;-77
2020/12/28 10:03:32;;;;;;;107.60;25.80;;;7.00;86.80;;;;;;5075784;28;20206;-77
2020/12/28 10:05:59;;;;;;;20.35;18.55;;;7.00;86.60;;;;;;5074572;28;20208;-77
2020/12/28 10:08:25;;;;;;;21.90;19.25;;;7.00;86.00;;;;;;5074753;28;20208;-77
2020/12/28 10:10:52;;;;;;;17.38;16.20;;;7.00;86.50;;;;;;5074360;28;20565;-77
2020/12/28 10:13:18;;;;;;;19.13;17.77;;;7.00;86.20;;;;;;5074508;28;20200;-77
2020/12/28 10:15:45;;;;;;;21.40;19.52;;;7.00;86.20;;;;;;5074538;28;20215;-77
2020/12/28 10:18:39;;;;;;;21.33;19.92;;;7.10;86.50;;;;;;5074602;28;20631;-77
2020/12/28 10:21:08;;;;;;;18.23;17.00;;;7.20;86.50;;;;;;5074575;28;20196;-77
2020/12/28 10:23:35;;;;;;;21.48;19.40;;;7.20;86.20;;;;;;5074088;28;20188;-77
2020/12/28 10:26:03;;;;;;;19.40;18.25;;;7.30;85.80;;;;;;5074384;28;20231;-77
2020/12/28 10:28:30;;;;;;;18.80;17.67;;;7.30;85.90;;;;;;5074345;28;20196;-77
2020/12/28 10:30:57;;;;;;;20.00;18.90;;;7.40;85.70;;;;;;5074539;28;20649;-77
2020/12/28 10:33:23;;;;;;;20.05;18.85;;;7.40;85.20;;;;;;5074809;28;20230;-77
2020/12/28 10:35:50;;;;;;;18.77;17.77;;;7.40;84.90;;;;;;5074293;28;20223;-77
2020/12/28 10:38:16;;;;;;;35.72;22.23;;;7.50;84.70;;;;;;5073408;28;20190;-77
2020/12/28 10:40:42;;;;;;;490.13;73.05;;;7.40;84.60;;;;;;5073961;28;20274;-77
2020/12/28 10:43:09;;;;;;;271.02;45.63;;;7.40;84.50;;;;;;5073716;28;20658;-77
2020/12/28 10:45:35;;;;;;;36.38;23.13;;;7.50;84.10;;;;;;5073602;28;20218;-77
2020/12/28 10:48:02;;;;;;;21.77;20.40;;;7.50;84.10;;;;;;5073543;28;20195;-77
2020/12/28 10:50:28;;;;;;;107.88;32.50;;;7.60;83.50;;;;;;5073841;28;20286;-77
2020/12/28 10:52:55;;;;;;;22.30;20.90;;;7.50;83.10;;;;;;5073965;28;20194;-77
2020/12/28 10:55:23;;;;;;;40.15;24.08;;;7.50;83.10;;;;;;5073039;28;20204;-77
2020/12/28 10:57:49;;;;;;;21.73;20.13;;;7.30;83.40;;;;;;5073644;28;20192;-77
2020/12/28 11:00:15;;;;;;;36.15;23.17;;;7.40;83.40;;;;;;5073561;28;20199;-77
2020/12/28 11:02:42;;;;;;;28.58;23.48;;;7.40;83.00;;;;;;5073448;28;20192;-77
2020/12/28 11:05:09;;;;;;;21.58;20.25;;;7.40;82.90;;;;;;5073453;28;20192;-77
2020/12/28 11:07:35;;;;;;;56.05;25.73;;;7.50;82.70;;;;;;5073818;28;20572;-77
2020/12/28 11:10:02;;;;;;;635.40;96.35;;;7.40;82.70;;;;;;5073517;28;20253;-77
2020/12/28 11:12:28;;;;;;;41.92;23.58;;;7.40;82.80;;;;;;5073656;28;20581;-77
2020/12/28 11:14:54;;;;;;;109.18;29.40;;;7.40;82.90;;;;;;5073626;28;20533;-77
2020/12/28 11:17:21;;;;;;;32.95;23.98;;;7.50;82.80;;;;;;5073175;28;20713;-77
2020/12/28 11:19:47;;;;;;;21.13;19.92;;;7.60;82.10;;;;;;5073361;28;20203;-77
2020/12/28 11:22:14;;;;;;;29.30;23.08;;;7.50;82.10;;;;;;5073371;28;20196;-77
2020/12/28 11:24:41;;;;;;;57.00;25.58;;;7.40;82.10;;;;;;5073484;28;20226;-77
2020/12/28 11:27:07;;;;;;;21.77;19.80;;;7.50;82.50;;;;;;5072475;28;20638;-77
2020/12/28 11:29:33;;;;;;;25.73;20.60;;;7.50;82.50;;;;;;5072955;28;20562;-77
2020/12/28 11:32:00;;;;;;;22.92;20.88;;;7.40;82.60;;;;;;5073480;28;20212;-77
2020/12/28 11:34:26;;;;;;;20.50;19.30;;;7.40;82.60;;;;;;5073105;28;20194;-77
2020/12/28 11:36:52;;;;;;;22.70;20.33;;;7.40;82.40;;;;;;5073227;28;20303;-77
2020/12/28 11:39:19;;;;;;;22.58;20.02;;;7.40;82.70;;;;;;5073168;28;20203;-77
2020/12/28 11:41:46;;;;;;;21.85;20.23;;;7.40;82.80;;;;;;5072562;28;20188;-77
2020/12/28 11:44:14;;;;;;;23.20;21.00;;;7.40;82.60;;;;;;5073218;28;20188;-77
2020/12/28 11:46:42;;;;;;;22.40;20.58;;;7.40;82.70;;;;;;5072541;28;20212;-78
2020/12/28 11:49:08;;;;;;;21.77;20.48;;;7.50;82.70;;;;;;5072563;28;20196;-77
2020/12/28 11:51:36;;;;;;;56.20;24.55;;;7.60;82.20;;;;;;5072811;28;20562;-77
2020/12/28 11:54:03;;;;;;;23.50;21.33;;;7.60;82.00;;;;;;5072869;28;20265;-77
2020/12/28 11:56:36;;;;;;;23.23;21.10;;;7.70;82.10;;;;;;5072320;28;20299;-77
2020/12/28 11:59:03;;;;;;;22.10;20.63;;;7.70;82.10;;;;;;5075143;28;20204;-77
2020/12/28 12:01:29;;;;;;;24.30;22.40;;;7.70;81.70;;;;;;5074816;28;20244;-77
2020/12/28 12:03:55;;;;;;;22.98;21.45;;;7.80;81.00;;;;;;5072870;28;20191;-77
2020/12/28 12:06:22;;;;;;;101.55;31.30;;;7.70;81.00;;;;;;5072027;28;20619;-77
2020/12/28 12:11:35;;;;;;;21.92;20.73;;;7.80;81.30;;;;;;5072692;28;20218;-77
2020/12/28 12:14:02;;;;;;;25.40;22.60;;;7.80;80.80;;;;;;5072170;28;20200;-77
2020/12/28 12:16:30;;;;;;;23.02;21.73;;;7.90;80.40;;;;;;5072310;28;20280;-77
2020/12/28 12:18:56;;;;;;;41.90;32.90;;;7.80;80.60;;;;;;5072494;28;20196;-77
2020/12/28 12:21:23;;;;;;;74.03;29.83;;;7.80;80.70;;;;;;5072348;28;20196;-77
2020/12/28 12:23:49;;;;;;;214.90;46.70;;;7.80;80.90;;;;;;5072561;28;20290;-76
2020/12/28 12:26:19;;;;;;;25.13;23.05;;;7.80;81.70;;;;;;5072020;28;20226;-76
2020/12/28 12:28:46;;;;;;;29.05;24.63;;;7.90;81.60;;;;;;5072182;28;20199;-76
2020/12/28 12:31:14;;;;;;;22.80;21.20;;;7.90;81.20;;;;;;5071398;28;20240;-76
2020/12/28 12:33:41;;;;;;;35.28;24.85;;;7.90;80.70;;;;;;5072341;28;20211;-77
2020/12/28 12:36:07;;;;;;;26.40;23.17;;;7.90;80.20;;;;;;5071531;28;20203;-77
2020/12/28 12:38:33;;;;;;;46.58;26.63;;;7.90;79.30;;;;;;5072313;28;20200;-77
2020/12/28 12:41:00;;;;;;;81.78;31.58;;;7.90;79.40;;;;;;5072378;28;20202;-77